Time;durP1;ratioP1;P1;durP2;ratioP2;P2;SDS_P1;SDS_P2;PMS_P1;PMS_P2;Temp;Humidity;BMP_temperature;BMP_pressure;BME280_temperature;BME280_humidity;BME280_pressure;Samples;Min_cycle;Max_cycle;Signal;HPM_P1;HPM_P2
2023/05/12 00:00:56;;;;;;;;;;;;;;;9.95;89.07;101771.53;5052623;28;19938;-72
2023/05/12 00:03:21;;;;;;;;;;;;;;;10.00;88.45;101768.97;5063678;28;20424;-72
2023/05/12 00:05:47;;;;;;;;;;;;;;;10.05;87.69;101761.03;5064171;28;20592;-74
2023/05/12 00:08:13;;;;;;;;;;;;;;;10.03;88.30;101760.47;5063784;28;20438;-72
2023/05/12 00:10:39;;;;;;;;;;;;;;;10.02;87.85;101772.22;5045542;28;19990;-72
2023/05/12 00:13:04;;;;;;;;;;;;;;;10.01;87.58;101765.22;5062067;28;19952;-72
2023/05/12 00:15:30;;;;;;;;;;;;;;;10.07;87.44;101776.84;5047557;28;20628;-72
2023/05/12 00:17:56;;;;;;;;;;;;;;;10.15;86.58;101770.28;5065097;28;19976;-72
2023/05/12 00:20:22;;;;;;;;;;;;;;;10.26;85.56;101761.41;5052259;28;20276;-72
2023/05/12 00:22:47;;;;;;;;;;;;;;;10.34;85.60;101761.00;5078452;28;19957;-72
2023/05/12 00:25:13;;;;;;;;;;;;;;;10.39;85.14;101761.09;5050503;28;20465;-72
2023/05/12 00:27:38;;;;;;;;;;;;;;;10.39;85.29;101767.25;5054961;28;19942;-72
2023/05/12 00:30:04;;;;;;;;;;;;;;;10.39;85.53;101763.78;5045181;28;19938;-70
2023/05/12 00:32:30;;;;;;;;;;;;;;;10.42;84.52;101760.59;5051691;28;19958;-70
2023/05/12 00:34:56;;;;;;;;;;;;;;;10.43;84.81;101767.59;5059878;28;19996;-72
2023/05/12 00:37:21;;;;;;;;;;;;;;;10.44;84.45;101769.22;5057183;28;19945;-72
2023/05/12 00:39:47;;;;;;;;;;;;;;;10.46;83.77;101774.31;5022689;28;19946;-70
2023/05/12 00:42:13;;;;;;;;;;;;;;;10.48;83.52;101764.97;5032889;28;19964;-71
2023/05/12 00:44:38;;;;;;;;;;;;;;;10.47;83.26;101766.03;5054524;28;19962;-70
2023/05/12 00:47:04;;;;;;;;;;;;;;;10.50;83.10;101768.25;5056950;28;19927;-70
2023/05/12 00:49:31;;;;;;;;;;;;;;;10.53;82.91;101774.97;5056159;28;19951;-71
2023/05/12 00:51:57;;;;;;;;;;;;;;;10.56;83.15;101771.78;5039615;28;19998;-72
2023/05/12 00:54:23;;;;;;;;;;;;;;;10.62;81.93;101768.94;5044357;28;20203;-73
2023/05/12 00:56:50;;;;;;;;;;;;;;;10.65;82.16;101781.06;5045990;28;19988;-74
2023/05/12 00:59:16;;;;;;;;;;;;;;;10.63;81.70;101784.00;5055637;28;19940;-71
2023/05/12 01:01:41;;;;;;;;;;;;;;;10.64;81.78;101776.78;5056659;28;19954;-72
2023/05/12 01:04:07;;;;;;;;;;;;;;;10.66;80.97;101771.97;5046116;28;20535;-72
2023/05/12 01:06:42;;;;;;;;;;;;;;;10.63;80.89;101784.00;5057776;28;20265;-72
2023/05/12 01:09:08;;;;;;;;;;;;;;;10.63;80.95;101777.81;5058560;28;19994;-71
2023/05/12 01:11:34;;;;;;;;;;;;;;;10.65;80.76;101778.38;5036833;28;19962;-71
2023/05/12 01:14:00;;;;;;;;;;;;;;;10.70;80.41;101783.00;5052599;28;19933;-70
2023/05/12 01:16:30;;;;;;;;;;;;;;;10.66;80.79;101790.72;5030567;28;20315;-73
2023/05/12 01:18:56;;;;;;;;;;;;;;;10.65;80.95;101781.88;5054782;28;19945;-73
2023/05/12 01:21:22;;;;;;;;;;;;;;;10.66;81.46;101788.03;5054846;28;20279;-73
2023/05/12 01:23:50;;;;;;;;;;;;;;;10.69;82.46;101781.38;5027767;28;20324;-73
2023/05/12 01:26:16;;;;;;;;;;;;;;;10.63;82.30;101783.16;5045084;28;20623;-74
2023/05/12 01:28:43;;;;;;;;;;;;;;;10.61;82.78;101786.09;5062297;28;19975;-72
2023/05/12 01:31:09;;;;;;;;;;;;;;;10.60;82.60;101784.47;5034784;28;19934;-72
2023/05/12 01:33:40;;;;;;;;;;;;;;;10.58;81.89;101786.59;5041730;28;20054;-70
2023/05/12 01:36:06;;;;;;;;;;;;;;;10.57;82.29;101790.31;5055269;28;19935;-73
2023/05/12 01:38:32;;;;;;;;;;;;;;;10.57;83.00;101801.03;5044916;28;19939;-73
2023/05/12 01:40:58;;;;;;;;;;;;;;;10.59;83.36;101804.28;5041693;28;19938;-72
2023/05/12 01:43:23;;;;;;;;;;;;;;;10.64;84.58;101803.56;5045011;28;20398;-68
2023/05/12 01:45:49;;;;;;;;;;;;;;;10.64;84.43;101807.03;5046553;28;19954;-72
2023/05/12 01:48:15;;;;;;;;;;;;;;;10.63;82.46;101804.59;5043006;28;19936;-74
2023/05/12 01:50:41;;;;;;;;;;;;;;;10.62;82.46;101801.09;5049533;28;19985;-72
2023/05/12 01:53:11;;;;;;;;;;;;;;;10.62;81.88;101797.63;5052362;28;19955;-70
2023/05/12 01:55:37;;;;;;;;;;;;;;;10.62;81.71;101798.41;5045055;28;19937;-70
2023/05/12 01:58:02;;;;;;;;;;;;;;;10.66;81.83;101799.56;5056628;28;19933;-72
2023/05/12 02:00:28;;;;;;;;;;;;;;;10.66;82.39;101818.31;5033101;28;19934;-71
2023/05/12 02:02:55;;;;;;;;;;;;;;;10.68;81.37;101809.22;5046967;28;19959;-71
2023/05/12 02:05:21;;;;;;;;;;;;;;;10.70;80.87;101809.78;5058913;28;19976;-71
2023/05/12 02:07:48;;;;;;;;;;;;;;;10.73;79.96;101809.31;5045606;28;19936;-72
2023/05/12 02:10:14;;;;;;;;;;;;;;;10.76;79.92;101814.97;5055056;28;20555;-72
2023/05/12 02:12:40;;;;;;;;;;;;;;;10.76;79.58;101809.63;5061536;28;20514;-71
2023/05/12 02:15:05;;;;;;;;;;;;;;;10.78;79.35;101812.88;5045664;28;20025;-71
2023/05/12 02:17:32;;;;;;;;;;;;;;;10.80;79.60;101815.31;5058532;28;20623;-71
2023/05/12 02:20:01;;;;;;;;;;;;;;;10.82;79.13;101821.22;5032195;28;19936;-71
2023/05/12 02:22:27;;;;;;;;;;;;;;;10.86;78.84;101833.09;5042698;28;19953;-71
2023/05/12 02:24:52;;;;;;;;;;;;;;;10.89;78.71;101827.22;5030160;28;20048;-71
2023/05/12 02:27:18;;;;;;;;;;;;;;;10.94;78.32;101821.97;5030973;28;20137;-71
2023/05/12 02:29:44;;;;;;;;;;;;;;;10.98;77.79;101823.09;5030366;28;21767;-71
2023/05/12 02:32:10;;;;;;;;;;;;;;;11.03;77.52;101827.72;5048643;28;20325;-71
2023/05/12 02:34:36;;;;;;;;;;;;;;;11.07;77.39;101826.16;5062474;28;19945;-71
2023/05/12 02:37:01;;;;;;;;;;;;;;;11.07;77.37;101823.50;5059710;28;19937;-71
2023/05/12 02:39:27;;;;;;;;;;;;;;;11.09;76.93;101824.84;5045541;28;20577;-70
2023/05/12 02:41:53;;;;;;;;;;;;;;;11.15;76.56;101829.22;5052717;28;20026;-71
2023/05/12 02:44:21;;;;;;;;;;;;;;;11.17;76.53;101824.44;5061756;28;20558;-70
2023/05/12 02:46:47;;;;;;;;;;;;;;;11.19;76.21;101827.69;5058530;28;19934;-70
2023/05/12 02:49:12;;;;;;;;;;;;;;;11.24;76.36;101824.25;5061720;28;19988;-70
2023/05/12 02:51:38;;;;;;;;;;;;;;;11.23;75.96;101813.78;5058285;28;20301;-72
2023/05/12 02:54:04;;;;;;;;;;;;;;;11.26;76.46;101818.66;5045376;28;19932;-71
2023/05/12 02:56:30;;;;;;;;;;;;;;;11.26;76.62;101815.97;5053138;28;19997;-70
2023/05/12 02:58:55;;;;;;;;;;;;;;;11.21;76.82;101822.88;5048016;28;19961;-70
2023/05/12 03:01:20;;;;;;;;;;;;;;;11.20;76.75;101826.63;5066586;28;19949;-72
2023/05/12 03:03:46;;;;;;;;;;;;;;;11.20;76.49;101826.63;5041303;28;20025;-71
2023/05/12 03:06:12;;;;;;;;;;;;;;;11.21;76.48;101828.25;5048331;28;19957;-72
2023/05/12 03:08:38;;;;;;;;;;;;;;;11.39;75.01;101826.34;5058676;28;19947;-70
2023/05/12 03:11:04;;;;;;;;;;;;;;;11.38;75.15;101827.38;5059223;28;19943;-72
2023/05/12 03:13:30;;;;;;;;;;;;;;;11.36;75.62;101830.31;5062343;28;19936;-72
2023/05/12 03:16:00;;;;;;;;;;;;;;;11.40;74.86;101820.72;5063656;28;20260;-71
2023/05/12 03:18:27;;;;;;;;;;;;;;;11.40;75.39;101833.34;5040894;28;19934;-73
2023/05/12 03:20:53;;;;;;;;;;;;;;;11.43;75.15;101827.47;5066881;28;20000;-73
2023/05/12 03:23:21;;;;;;;;;;;;;;;11.47;74.92;101831.28;5057917;28;20380;-72
2023/05/12 03:25:46;;;;;;;;;;;;;;;11.44;75.11;101831.75;5063410;28;19950;-72
2023/05/12 03:28:12;;;;;;;;;;;;;;;11.43;75.48;101836.31;5069268;28;20458;-73
2023/05/12 03:30:38;;;;;;;;;;;;;;;11.38;75.49;101833.59;5061323;28;19939;-71
2023/05/12 03:33:04;;;;;;;;;;;;;;;11.34;76.20;101834.31;5059169;28;19955;-72
2023/05/12 03:35:30;;;;;;;;;;;;;;;11.32;76.42;101839.13;5058291;28;19931;-71
2023/05/12 03:37:55;;;;;;;;;;;;;;;11.32;76.23;101839.13;5068250;28;19946;-71
2023/05/12 03:40:21;;;;;;;;;;;;;;;11.31;76.16;101840.16;5063912;28;19931;-70
2023/05/12 03:42:47;;;;;;;;;;;;;;;11.31;76.18;101840.16;5042588;28;19964;-70
2023/05/12 03:45:12;;;;;;;;;;;;;;;11.29;76.10;101840.41;5042364;28;19959;-72
2023/05/12 03:47:39;;;;;;;;;;;;;;;11.29;76.36;101840.41;5059839;28;19944;-73
2023/05/12 03:50:06;;;;;;;;;;;;;;;11.35;76.11;101844.78;5058085;28;19944;-72
2023/05/12 03:52:32;;;;;;;;;;;;;;;11.38;76.00;101846.16;5063892;28;20704;-71
2023/05/12 03:54:57;;;;;;;;;;;;;;;11.40;76.16;101836.00;5055060;28;19931;-71
2023/05/12 03:57:23;;;;;;;;;;;;;;;11.42;75.54;101849.97;5055228;28;20027;-71
2023/05/12 03:59:50;;;;;;;;;;;;;;;11.54;74.52;101852.56;5061834;28;19940;-71
2023/05/12 04:02:15;;;;;;;;;;;;;;;11.51;75.66;101840.44;5063935;28;19947;-72
2023/05/12 04:04:41;;;;;;;;;;;;;;;11.51;75.69;101853.03;5041065;28;19957;-73
2023/05/12 04:07:06;;;;;;;;;;;;;;;11.55;75.60;101854.97;5061725;28;19934;-71
2023/05/12 04:09:32;;;;;;;;;;;;;;;11.62;74.76;101852.94;5060903;28;19989;-72
2023/05/12 04:11:58;;;;;;;;;;;;;;;11.64;74.99;101853.47;5062945;28;19952;-72
2023/05/12 04:14:26;;;;;;;;;;;;;;;11.64;75.16;101853.47;5043328;28;19977;-72
2023/05/12 04:16:51;;;;;;;;;;;;;;;11.63;75.43;101856.41;5030312;28;20029;-72
2023/05/12 04:19:17;;;;;;;;;;;;;;;11.68;75.22;101851.94;5042672;28;20006;-72
2023/05/12 04:21:42;;;;;;;;;;;;;;;11.69;75.40;101855.41;5052798;28;19957;-71
2023/05/12 04:24:09;;;;;;;;;;;;;;;11.70;74.92;101857.84;5042352;28;20433;-71
2023/05/12 04:26:38;;;;;;;;;;;;;;;11.76;74.67;101867.59;5041429;28;20105;-70
2023/05/12 04:29:03;;;;;;;;;;;;;;;11.80;74.97;101875.16;5047646;28;19942;-71
2023/05/12 04:31:29;;;;;;;;;;;;;;;11.81;74.39;101880.31;5056422;28;19965;-73
2023/05/12 04:33:56;;;;;;;;;;;;;;;11.86;74.28;101877.69;5050312;28;19938;-72
2023/05/12 04:36:23;;;;;;;;;;;;;;;11.92;73.85;101883.91;5059517;28;19942;-72
2023/05/12 04:38:49;;;;;;;;;;;;;;;12.01;73.44;101879.72;5059625;28;20410;-73
2023/05/12 04:41:14;;;;;;;;;;;;;;;12.06;74.23;101882.47;5061585;28;19957;-72
2023/05/12 04:43:40;;;;;;;;;;;;;;;12.08;74.28;101888.41;5050055;28;19941;-71
2023/05/12 04:46:06;;;;;;;;;;;;;;;12.12;74.09;101886.81;5056853;28;19959;-72
2023/05/12 04:48:31;;;;;;;;;;;;;;;12.20;73.87;101894.44;5053971;28;20035;-72
2023/05/12 04:50:57;;;;;;;;;;;;;;;12.25;73.75;101891.00;5055576;28;19934;-72
2023/05/12 04:53:23;;;;;;;;;;;;;;;12.34;73.58;101896.75;5057395;28;20032;-73
2023/05/12 04:55:50;;;;;;;;;;;;;;;12.38;72.93;101892.47;5040094;28;20021;-71
2023/05/12 04:58:15;;;;;;;;;;;;;;;12.46;73.01;101898.22;5055841;28;19991;-71
2023/05/12 05:00:42;;;;;;;;;;;;;;;12.50;73.15;101899.31;5027469;28;19990;-73
2023/05/12 05:03:08;;;;;;;;;;;;;;;12.49;73.83;101903.06;5031094;28;19946;-71
2023/05/12 05:05:33;;;;;;;;;;;;;;;12.55;74.02;101909.31;5064812;28;20062;-72
2023/05/12 05:07:59;;;;;;;;;;;;;;;12.62;73.79;101907.22;5066791;28;19937;-74
2023/05/12 05:10:24;;;;;;;;;;;;;;;12.67;72.50;101915.34;5064790;28;19935;-71
2023/05/12 05:12:50;;;;;;;;;;;;;;;12.77;72.56;101911.91;5065918;28;19952;-71
2023/05/12 05:15:19;;;;;;;;;;;;;;;12.81;73.16;101921.91;5060819;28;19940;-72
2023/05/12 05:17:48;;;;;;;;;;;;;;;12.84;73.65;101926.78;5055574;28;19936;-72
2023/05/12 05:20:14;;;;;;;;;;;;;;;12.92;73.70;101925.50;5049640;28;19931;-74
2023/05/12 05:22:40;;;;;;;;;;;;;;;13.01;73.50;101915.09;5049891;28;19949;-73
2023/05/12 05:25:07;;;;;;;;;;;;;;;13.01;73.14;101915.91;5062648;28;20322;-72
2023/05/12 05:27:32;;;;;;;;;;;;;;;13.15;72.05;101926.22;5059240;28;19950;-73
2023/05/12 05:29:58;;;;;;;;;;;;;;;13.17;73.01;101921.38;5060474;28;19937;-73
2023/05/12 05:32:24;;;;;;;;;;;;;;;13.24;74.04;101927.38;5047521;28;19947;-71
2023/05/12 05:34:49;;;;;;;;;;;;;;;13.29;73.86;101935.50;5050325;28;19949;-71
2023/05/12 05:37:16;;;;;;;;;;;;;;;13.38;74.81;101942.00;5056095;28;19939;-74
2023/05/12 05:39:42;;;;;;;;;;;;;;;13.47;73.96;101934.25;5059367;28;20389;-71
2023/05/12 05:42:07;;;;;;;;;;;;;;;13.58;72.30;101952.09;5063203;28;19953;-73
2023/05/12 05:44:33;;;;;;;;;;;;;;;13.73;71.27;101952.19;5057555;28;20550;-71
2023/05/12 05:47:01;;;;;;;;;;;;;;;13.85;70.86;101941.19;5044315;28;19945;-72
2023/05/12 05:49:27;;;;;;;;;;;;;;;13.97;71.20;101944.50;5041693;28;19940;-73
2023/05/12 05:51:54;;;;;;;;;;;;;;;14.13;70.03;101948.06;5047867;28;20061;-71
2023/05/12 05:54:22;;;;;;;;;;;;;;;14.19;68.85;101955.09;5063430;28;20710;-71
2023/05/12 05:56:48;;;;;;;;;;;;;;;14.32;70.07;101962.66;5039132;28;19943;-71
2023/05/12 05:59:14;;;;;;;;;;;;;;;14.34;70.23;101955.13;5043437;28;19941;-71
2023/05/12 06:01:40;;;;;;;;;;;;;;;14.46;71.67;101963.81;5049208;28;19955;-72
2023/05/12 06:04:06;;;;;;;;;;;;;;;14.57;68.05;101971.94;5049779;28;20411;-72
2023/05/12 06:06:31;;;;;;;;;;;;;;;14.69;70.31;101970.59;5066319;28;19937;-71
2023/05/12 06:08:58;;;;;;;;;;;;;;;14.70;69.80;101966.84;5061572;28;19935;-72
2023/05/12 06:11:25;;;;;;;;;;;;;;;14.85;65.70;101968.75;5060445;28;19960;-72
2023/05/12 06:13:51;;;;;;;;;;;;;;;14.94;67.96;101969.81;5060405;28;19931;-72
2023/05/12 06:16:17;;;;;;;;;;;;;;;15.03;67.36;101984.38;5061020;28;19983;-72
2023/05/12 06:18:43;;;;;;;;;;;;;;;15.13;64.58;101977.38;5045855;28;19970;-73
2023/05/12 06:21:08;;;;;;;;;;;;;;;15.23;65.95;101983.59;5030966;28;19958;-72
2023/05/12 06:23:34;;;;;;;;;;;;;;;15.37;64.65;101978.44;5049152;28;20019;-72
2023/05/12 06:25:59;;;;;;;;;;;;;;;15.38;63.82;101985.50;5064384;28;20435;-72
2023/05/12 06:28:26;;;;;;;;;;;;;;;15.35;64.27;101986.00;5064044;28;19945;-72
2023/05/12 06:30:52;;;;;;;;;;;;;;;15.34;63.24;101989.00;5065677;28;19943;-71
2023/05/12 06:33:17;;;;;;;;;;;;;;;15.34;62.97;101989.78;5062485;28;19954;-73
2023/05/12 06:35:46;;;;;;;;;;;;;;;15.42;61.53;101986.53;5043189;28;20334;-73
2023/05/12 06:38:11;;;;;;;;;;;;;;;15.60;62.23;101987.06;5062924;28;19933;-73
2023/05/12 06:40:37;;;;;;;;;;;;;;;15.51;62.71;101984.94;5044819;28;19995;-73
2023/05/12 06:43:02;;;;;;;;;;;;;;;15.76;62.69;101981.38;5043548;28;20423;-75
2023/05/12 06:45:29;;;;;;;;;;;;;;;15.80;63.24;101992.47;5058438;28;19969;-73
2023/05/12 06:47:58;;;;;;;;;;;;;;;15.81;60.99;101992.19;5044014;28;20442;-73
2023/05/12 06:50:26;;;;;;;;;;;;;;;15.78;60.31;101994.59;5055754;28;19948;-74
2023/05/12 06:52:52;;;;;;;;;;;;;;;16.06;60.94;102002.09;5045381;28;19986;-72
2023/05/12 06:55:21;;;;;;;;;;;;;;;16.20;58.59;101993.41;5061460;28;19948;-74
2023/05/12 06:57:47;;;;;;;;;;;;;;;16.00;57.38;102005.91;5063775;28;19939;-73
2023/05/12 07:00:13;;;;;;;;;;;;;;;16.30;61.02;101990.66;5065330;28;19960;-71
2023/05/12 07:02:38;;;;;;;;;;;;;;;16.58;57.96;101998.06;5065326;28;20420;-72
2023/05/12 07:05:04;;;;;;;;;;;;;;;16.76;59.16;102004.75;5059054;28;19991;-74
2023/05/12 07:07:30;;;;;;;;;;;;;;;16.70;57.09;101996.97;5070909;28;20477;-72
2023/05/12 07:09:56;;;;;;;;;;;;;;;16.83;55.96;101994.44;5046913;28;20452;-71
2023/05/12 07:12:21;;;;;;;;;;;;;;;17.10;55.32;101999.38;5055524;28;20023;-73
2023/05/12 07:14:46;;;;;;;;;;;;;;;17.25;55.07;101997.63;5062440;28;19978;-71
2023/05/12 07:17:12;;;;;;;;;;;;;;;17.16;54.67;102002.84;5060826;28;19938;-73
2023/05/12 07:19:39;;;;;;;;;;;;;;;17.22;55.22;102003.63;5057177;28;19937;-72
2023/05/12 07:22:04;;;;;;;;;;;;;;;17.69;54.52;102005.63;5048356;28;19975;-73
2023/05/12 07:24:30;;;;;;;;;;;;;;;17.79;53.84;102015.56;5044318;28;20413;-75
2023/05/12 07:26:56;;;;;;;;;;;;;;;17.70;53.89;102013.47;5040328;28;21053;-72
2023/05/12 07:29:22;;;;;;;;;;;;;;;17.69;54.08;102019.97;5056627;28;19940;-72
2023/05/12 07:31:47;;;;;;;;;;;;;;;17.66;55.02;102009.69;5048067;28;19959;-71
2023/05/12 07:34:13;;;;;;;;;;;;;;;17.64;55.75;102014.59;5058300;28;20595;-71
2023/05/12 07:36:39;;;;;;;;;;;;;;;17.89;55.42;102015.47;5060303;28;19933;-73
2023/05/12 07:39:05;;;;;;;;;;;;;;;17.97;52.74;102012.13;5053355;28;20255;-72
2023/05/12 07:41:31;;;;;;;;;;;;;;;18.35;54.56;102014.91;5057944;28;19954;-71
2023/05/12 07:43:57;;;;;;;;;;;;;;;18.69;50.95;102015.56;5037367;28;19985;-72
2023/05/12 07:46:23;;;;;;;;;;;;;;;18.71;52.05;102013.38;5061035;28;19957;-72
2023/05/12 07:48:49;;;;;;;;;;;;;;;19.00;49.37;102018.63;5061212;28;20025;-73
2023/05/12 07:51:14;;;;;;;;;;;;;;;18.75;51.15;102017.09;5042137;28;19970;-73
2023/05/12 07:53:40;;;;;;;;;;;;;;;18.76;49.42;102020.63;5061750;28;19978;-72
2023/05/12 07:56:07;;;;;;;;;;;;;;;18.51;50.74;102021.75;5063399;28;19967;-73
2023/05/12 07:58:32;;;;;;;;;;;;;;;18.49;49.79;102029.38;5062039;28;19949;-72
2023/05/12 08:00:59;;;;;;;;;;;;;;;18.49;49.36;102029.38;5064840;28;19934;-71
2023/05/12 08:03:24;;;;;;;;;;;;;;;18.50;48.53;102031.00;5059352;28;19935;-71
2023/05/12 08:05:50;;;;;;;;;;;;;;;18.72;50.18;102035.88;5031356;28;20146;-72
2023/05/12 08:08:16;;;;;;;;;;;;;;;18.69;48.89;102029.13;5060166;28;19934;-71
2023/05/12 08:10:44;;;;;;;;;;;;;;;18.97;48.69;102029.28;5060898;28;19939;-72
2023/05/12 08:13:10;;;;;;;;;;;;;;;19.25;47.63;102025.56;5050754;28;19962;-72
2023/05/12 08:15:36;;;;;;;;;;;;;;;19.49;46.34;102013.75;5062096;28;19942;-72
2023/05/12 08:18:01;;;;;;;;;;;;;;;19.46;46.94;102019.78;5060207;28;19933;-72
2023/05/12 08:20:27;;;;;;;;;;;;;;;19.63;48.30;102026.28;5059261;28;19962;-74
2023/05/12 08:22:52;;;;;;;;;;;;;;;20.31;47.69;102024.69;5056574;28;20706;-72
2023/05/12 08:25:18;;;;;;;;;;;;;;;20.43;44.75;102024.97;5051937;28;19994;-72
2023/05/12 08:27:44;;;;;;;;;;;;;;;20.14;45.83;102029.97;5064198;28;19938;-74
2023/05/12 08:30:10;;;;;;;;;;;;;;;20.27;45.34;102028.34;5062058;28;20049;-73
2023/05/12 08:32:36;;;;;;;;;;;;;;;20.43;45.15;102024.19;5069569;28;20056;-72
2023/05/12 08:35:02;;;;;;;;;;;;;;;20.09;45.16;102027.34;5061630;28;19958;-73
2023/05/12 08:37:27;;;;;;;;;;;;;;;20.05;46.85;102038.03;5056343;28;19981;-73
2023/05/12 08:39:53;;;;;;;;;;;;;;;20.07;44.96;102029.56;5048229;28;20450;-73
2023/05/12 08:42:41;;;;;;;;;;;;;;;20.05;44.71;102034.47;5040941;28;19957;-72
2023/05/12 08:45:07;;;;;;;;;;;;;;;19.75;45.83;102031.25;5039027;28;20042;-74
2023/05/12 08:47:36;;;;;;;;;;;;;;;20.17;50.27;102026.63;5042433;28;21705;-72
2023/05/12 08:50:03;;;;;;;;;;;;;;;20.57;45.27;102021.47;5052491;28;19933;-73
2023/05/12 08:52:31;;;;;;;;;;;;;;;20.79;44.69;102018.75;5057146;28;19960;-74
2023/05/12 08:54:57;;;;;;;;;;;;;;;20.90;46.99;102025.59;5054800;28;19938;-73
2023/05/12 08:57:23;;;;;;;;;;;;;;;21.20;44.83;102018.63;5057721;28;19975;-73
2023/05/12 08:59:51;;;;;;;;;;;;;;;21.37;45.44;102023.38;5057461;28;19946;-75
2023/05/12 09:02:17;;;;;;;;;;;;;;;21.52;42.81;102014.81;5055149;28;20615;-73
2023/05/12 09:04:42;;;;;;;;;;;;;;;21.63;43.26;102022.72;5039612;28;19956;-73
2023/05/12 09:07:09;;;;;;;;;;;;;;;21.31;43.82;102021.91;5057488;28;19935;-74
2023/05/12 09:09:35;;;;;;;;;;;;;;;21.84;43.31;102015.59;5053259;28;19942;-75
2023/05/12 09:12:02;;;;;;;;;;;;;;;22.13;42.56;102022.47;5054155;28;19953;-74
2023/05/12 09:14:28;;;;;;;;;;;;;;;22.03;42.96;102012.63;5061328;28;20422;-74
2023/05/12 09:16:59;;;;;;;;;;;;;;;22.02;40.59;102009.09;5056832;28;19930;-74
2023/05/12 09:19:25;;;;;;;;;;;;;;;22.15;40.44;102009.31;5057629;28;19934;-74
2023/05/12 09:21:51;;;;;;;;;;;;;;;22.48;38.23;102005.03;5057768;28;19963;-73
2023/05/12 09:24:16;;;;;;;;;;;;;;;22.32;38.12;102010.16;5056300;28;20808;-74
2023/05/12 09:26:52;;;;;;;;;;;;;;;22.30;38.45;102015.13;5058364;28;19939;-74
2023/05/12 09:29:18;;;;;;;;;;;;;;;22.75;38.74;102012.13;5056643;28;19973;-76
2023/05/12 09:31:48;;;;;;;;;;;;;;;22.25;36.99;102009.81;5044366;28;19955;-74
2023/05/12 09:34:14;;;;;;;;;;;;;;;22.66;37.06;102010.50;5040439;28;20319;-75
2023/05/12 09:36:40;;;;;;;;;;;;;;;22.52;37.32;102008.75;5056189;28;20424;-74
2023/05/12 09:39:07;;;;;;;;;;;;;;;21.86;34.85;102018.81;5051885;28;19945;-76
2023/05/12 09:41:37;;;;;;;;;;;;;;;21.59;35.33;102016.28;5056606;28;20058;-72
2023/05/12 09:44:03;;;;;;;;;;;;;;;22.20;34.75;102014.63;5053689;28;19990;-73
2023/05/12 09:46:28;;;;;;;;;;;;;;;22.70;35.34;102020.47;5059909;28;19961;-74
2023/05/12 09:48:55;;;;;;;;;;;;;;;22.51;36.17;102007.13;5057142;28;19931;-73
2023/05/12 09:51:20;;;;;;;;;;;;;;;22.15;35.39;102009.31;5068462;28;20470;-74
2023/05/12 09:53:46;;;;;;;;;;;;;;;22.24;37.15;102019.13;5059803;28;20495;-74
2023/05/12 09:56:12;;;;;;;;;;;;;;;22.58;34.96;102012.91;5041389;28;19944;-74
2023/05/12 09:58:41;;;;;;;;;;;;;;;22.73;35.20;102016.31;5050432;28;19941;-72
2023/05/12 10:01:07;;;;;;;;;;;;;;;23.61;33.80;102004.94;5062104;28;20624;-74
2023/05/12 10:03:33;;;;;;;;;;;;;;;23.49;32.80;101993.84;5048307;28;19941;-71
2023/05/12 10:06:00;;;;;;;;;;;;;;;23.34;33.33;102001.47;5058155;28;20656;-73
2023/05/12 10:08:35;;;;;;;;;;;;;;;23.21;34.29;102007.94;5062133;28;19948;-75
2023/05/12 10:11:01;;;;;;;;;;;;;;;22.57;33.99;102008.59;5054730;28;20341;-74
2023/05/12 10:13:27;;;;;;;;;;;;;;;22.51;32.46;102006.34;5060436;28;19945;-75
2023/05/12 10:15:54;;;;;;;;;;;;;;;22.48;32.73;102015.16;5059192;28;19988;-71
2023/05/12 10:18:20;;;;;;;;;;;;;;;22.88;32.42;102005.72;5060925;28;19946;-73
2023/05/12 10:20:46;;;;;;;;;;;;;;;22.88;33.76;102004.91;5060751;28;19933;-74
2023/05/12 10:23:12;;;;;;;;;;;;;;;22.78;33.87;102002.50;5052461;28;19954;-72
2023/05/12 10:25:39;;;;;;;;;;;;;;;22.16;33.85;102000.81;5063934;28;19957;-74
2023/05/12 10:28:05;;;;;;;;;;;;;;;22.73;31.32;102005.38;5061718;28;19940;-72
2023/05/12 10:30:31;;;;;;;;;;;;;;;22.23;33.03;102008.53;5078488;28;20314;-73
2023/05/12 10:32:57;;;;;;;;;;;;;;;21.74;33.41;102002.25;5045567;28;19965;-70
2023/05/12 10:35:31;;;;;;;;;;;;;;;21.55;34.95;102012.59;5058352;28;19953;-74
2023/05/12 10:37:59;;;;;;;;;;;;;;;21.50;35.78;102003.44;5059811;28;19943;-73
2023/05/12 10:40:25;;;;;;;;;;;;;;;21.43;33.94;102003.06;5044527;28;19935;-69
2023/05/12 10:42:51;;;;;;;;;;;;;;;21.56;33.77;102000.56;5051744;28;20150;-73
2023/05/12 10:45:18;;;;;;;;;;;;;;;21.80;33.53;102000.97;5056875;28;19964;-74
2023/05/12 10:47:45;;;;;;;;;;;;;;;21.52;34.22;102003.91;5023691;28;19942;-70
2023/05/12 10:50:13;;;;;;;;;;;;;;;21.18;34.02;101993.59;5061868;28;19940;-73
2023/05/12 10:52:59;;;;;;;;;;;;;;;21.11;37.82;101998.66;5053357;28;19959;-72
2023/05/12 10:55:29;;;;;;;;;;;;;;;22.19;32.35;102000.19;5042264;28;19936;-73
2023/05/12 10:58:02;;;;;;;;;;;;;;;23.50;31.19;101999.00;5057974;28;19945;-76
2023/05/12 11:00:28;;;;;;;;;;;;;;;23.35;32.33;101991.34;5063686;28;20030;-73
2023/05/12 11:02:54;;;;;;;;;;;;;;;22.69;33.37;102002.47;5058300;28;19986;-74
2023/05/12 11:05:19;;;;;;;;;;;;;;;22.20;33.21;102006.44;5054471;28;19989;-74
2023/05/12 11:07:48;;;;;;;;;;;;;;;21.77;33.61;102016.06;5047741;28;19938;-74
2023/05/12 11:10:14;;;;;;;;;;;;;;;21.57;32.69;102004.91;5058974;28;20421;-75
2023/05/12 11:12:41;;;;;;;;;;;;;;;22.69;32.10;101996.22;5047749;28;19963;-73
2023/05/12 11:15:07;;;;;;;;;;;;;;;23.78;30.78;101996.69;5055947;28;20040;-73
2023/05/12 11:17:36;;;;;;;;;;;;;;;24.62;31.45;102000.38;5058551;28;20015;-74
2023/05/12 11:20:02;;;;;;;;;;;;;;;24.71;29.11;101998.34;5055773;28;20031;-73
2023/05/12 11:22:29;;;;;;;;;;;;;;;24.62;28.99;101991.34;5028753;28;20988;-76
2023/05/12 11:24:54;;;;;;;;;;;;;;;23.42;31.38;102002.56;5058922;28;20591;-71
2023/05/12 11:27:21;;;;;;;;;;;;;;;22.76;31.76;102007.44;5061713;28;19939;-73
2023/05/12 11:30:00;;;;;;;;;;;;;;;22.64;34.19;102001.84;5055858;28;19937;-72
2023/05/12 11:32:26;;;;;;;;;;;;;;;22.65;32.55;102014.38;5060249;28;19949;-73
2023/05/12 11:34:51;;;;;;;;;;;;;;;22.57;32.71;102010.53;5060860;28;19944;-72
2023/05/12 11:37:19;;;;;;;;;;;;;;;21.85;31.99;102014.47;5044722;28;19940;-72
2023/05/12 11:39:45;;;;;;;;;;;;;;;21.94;31.57;102009.84;5027470;28;19936;-72
2023/05/12 11:42:10;;;;;;;;;;;;;;;23.08;29.88;102001.50;5054155;28;20501;-73
2023/05/12 11:44:44;;;;;;;;;;;;;;;23.55;29.38;102011.69;5049753;28;19965;-76
2023/05/12 11:47:10;;;;;;;;;;;;;;;24.32;29.38;102007.00;5066856;28;19940;-74
2023/05/12 11:49:49;;;;;;;;;;;;;;;24.05;31.28;102009.09;5061702;28;19944;-72
2023/05/12 11:52:15;;;;;;;;;;;;;;;23.51;30.49;102008.81;5060088;28;20001;-73
2023/05/12 11:54:56;;;;;;;;;;;;;;;22.61;32.78;102015.00;5056799;28;20368;-74
2023/05/12 11:57:26;;;;;;;;;;;;;;;22.52;35.33;102018.84;5056124;28;20465;-75
2023/05/12 12:00:08;;;;;;;;;;;;;;;22.32;35.00;102021.06;5061372;28;19937;-75
2023/05/12 12:02:36;;;;;;;;;;;;;;;22.42;34.39;102019.97;5042794;28;19954;-74
2023/05/12 12:05:02;;;;;;;;;;;;;;;22.12;35.26;102015.41;5053245;28;19988;-75
2023/05/12 12:07:32;;;;;;;;;;;;;;;22.15;32.58;102014.75;5029177;28;20393;-74
2023/05/12 12:09:57;;;;;;;;;;;;;;;23.13;30.15;102012.28;5051473;28;19945;-72
2023/05/12 12:12:23;;;;;;;;;;;;;;;23.75;31.16;102016.47;5046451;28;19960;-72
2023/05/12 12:14:48;;;;;;;;;;;;;;;23.61;33.59;102016.69;5055264;28;20401;-75
2023/05/12 12:17:14;;;;;;;;;;;;;;;22.69;33.26;102013.41;5048948;28;19986;-75
2023/05/12 12:19:40;;;;;;;;;;;;;;;22.07;38.11;102014.38;5063564;28;19992;-74
2023/05/12 12:22:06;;;;;;;;;;;;;;;21.59;37.57;102008.13;5052823;28;19953;-75
2023/05/12 12:24:32;;;;;;;;;;;;;;;21.62;35.58;102007.50;5045163;28;19943;-71
2023/05/12 12:26:57;;;;;;;;;;;;;;;21.48;35.61;102002.13;5062774;28;19948;-74
2023/05/12 12:29:24;;;;;;;;;;;;;;;22.72;34.27;102006.50;5044676;28;20561;-74
2023/05/12 12:31:50;;;;;;;;;;;;;;;23.03;34.10;102018.09;5060983;28;19967;-73